Address 0xcaa67cb622475c328be6a77e034096c6a67c3cfb 1

 
 
Txn Hash Method
Block
From
To
Value [Txn Fee]
0xba7ce590945d53f8dcd1b3035ca9231926b8e8bd076f6f9704d7421b4ef303a4Deposit From295191962022-06-13 13:46:5217 days 20 hrs ago0xcaa67cb622475c328be6a77e034096c6a67c3cfbOUT 0x28caa843cb577d892a8b6ec3f24aa682ed22be680 MATIC0.054520473569 321.599688369
0xd3ef705f9772d642a2fdb8890d426cb2c03fc06a95fb33ce69bb65a9b770eb96Deposit From295191572022-06-13 13:45:3017 days 20 hrs ago0xcaa67cb622475c328be6a77e034096c6a67c3cfbOUT 0x28caa843cb577d892a8b6ec3f24aa682ed22be680 MATIC0.070975002244 418.630315052
0x29e0083dbe0f484f68021082326f904a81e88a7d1fb7e240de41846e29ca66a0Claim295191332022-06-13 13:44:4217 days 20 hrs ago0xcaa67cb622475c328be6a77e034096c6a67c3cfbOUT 0xe0ff071e9c2f7ca021dbc7e4630a8e92a90c92420 MATIC0.020679271229 376.994352711
0xeecda177d2650da8b728223cd81d73dd8c7848c804b2d0dcf8f76c9456d293c1Deposit From293911782022-06-10 10:12:3320 days 23 hrs ago0xcaa67cb622475c328be6a77e034096c6a67c3cfbOUT 0x28caa843cb577d892a8b6ec3f24aa682ed22be680 MATIC0.005594853004 33.000000026
0x45fc38c9ec03ffcae8f1a64aa0dc193db7b250c32e211d2074b42d56f2df45a7Claim293911412022-06-10 10:10:5320 days 23 hrs ago0xcaa67cb622475c328be6a77e034096c6a67c3cfbOUT 0x28caa843cb577d892a8b6ec3f24aa682ed22be680 MATIC0.004002570002 33.000000022
0xa01ab11318649928d36baedc34a6ba9a638fc3a56c23e44669150fff35eebfb3Claim293911372022-06-10 10:10:4520 days 23 hrs ago0xcaa67cb622475c328be6a77e034096c6a67c3cfbOUT 0xe0ff071e9c2f7ca021dbc7e4630a8e92a90c92420 MATIC0.001915617001 33.000000022
0x11e69e14833573f9d55ea711b302c7048a38aab80d50e17e38c1b7a2d6e7e571Deposit From293085422022-06-08 8:18:2323 days 1 hr ago0xcaa67cb622475c328be6a77e034096c6a67c3cfbOUT 0x28caa843cb577d892a8b6ec3f24aa682ed22be680 MATIC0.005781348117 34.100000106
0x4cd83e5743d9f0284f248e72049229656629addbdbd28a2eed6e2bbe3713a358Claim293085192022-06-08 8:17:3723 days 1 hr ago0xcaa67cb622475c328be6a77e034096c6a67c3cfbOUT 0x28caa843cb577d892a8b6ec3f24aa682ed22be680 MATIC0.004135989012 34.100000106
0xac42e48f8e0fe9ac2fb0e24cde6b47e0789a352c89af224587513e0bd246a909Claim293085062022-06-08 8:17:1123 days 1 hr ago0xcaa67cb622475c328be6a77e034096c6a67c3cfbOUT 0xe0ff071e9c2f7ca021dbc7e4630a8e92a90c92420 MATIC0.001979470901 34.100000024
0x34f259ae87c93574f1305e59c59c8dfbcf08139b4a9f52361819a89177471182Deposit From292690502022-06-07 8:41:5924 days 1 hr ago0xcaa67cb622475c328be6a77e034096c6a67c3cfbOUT 0x28caa843cb577d892a8b6ec3f24aa682ed22be680 MATIC0.008864324586 52.284253285
0x6d5b362431ee4ab20db6639edc9eca1b8d97348ee11eca17791ab7bba6a4e030Claim292690212022-06-07 8:41:0124 days 1 hr ago0xcaa67cb622475c328be6a77e034096c6a67c3cfbOUT 0x28caa843cb577d892a8b6ec3f24aa682ed22be680 MATIC0.007338045006 60.500000053
0x7d36fa2aa8bb4c6df9cd2120f7a819978c4b560bf841b77bfdf76c522b6249faClaim292690172022-06-07 8:40:5324 days 1 hr ago0xcaa67cb622475c328be6a77e034096c6a67c3cfbOUT 0xe0ff071e9c2f7ca021dbc7e4630a8e92a90c92420 MATIC0.003511964503 60.500000053
0x45515e44e3d9dd6718602129ad981c77637557cd9d0e53689a962692d61b6ac1Claim292427002022-06-06 16:56:1124 days 16 hrs ago0xcaa67cb622475c328be6a77e034096c6a67c3cfbOUT 0x28caa843cb577d892a8b6ec3f24aa682ed22be680 MATIC0.006100607539 50.297695933
0x0a55a5d8e5686319e683cfe59d2aa81a5a6f288054e03068e543edc955792ec3Claim292426932022-06-06 16:55:5724 days 16 hrs ago0xcaa67cb622475c328be6a77e034096c6a67c3cfbOUT 0xe0ff071e9c2f7ca021dbc7e4630a8e92a90c92420 MATIC0.004112272652 70.841403857
0xb0c6dd6b567567d3171397acc2079e31924a30ae77aebfe8590e3c5243509355Transfer292426592022-06-06 16:54:4524 days 16 hrs ago0xaeca7fa9ee44f9158bd1af6716451f387c297bdc IN 0xcaa67cb622475c328be6a77e034096c6a67c3cfb2 MATIC0.001162371202 55.351009665
0x7686f3ae4ffcd69d3e066971bb4360bd6c202d7f41c291646e96c1c5dbc5e474Deposit From292054352022-06-05 18:10:1525 days 15 hrs ago0xcaa67cb622475c328be6a77e034096c6a67c3cfbOUT 0x28caa843cb577d892a8b6ec3f24aa682ed22be680 MATIC0.005594457002 33.000000015
0x180a4fb658def4aa40b0949106c213499cfa2a59da4e60b4499859e86645f5baClaim292054102022-06-05 18:09:2525 days 15 hrs ago0xcaa67cb622475c328be6a77e034096c6a67c3cfbOUT 0x28caa843cb577d892a8b6ec3f24aa682ed22be680 MATIC0.004002570001 33.000000015
0x326e3f6c44f2b354548fb8a69eb266b2add32c7a5a23e699563a523e643b311cClaim292054052022-06-05 18:09:1525 days 15 hrs ago0xcaa67cb622475c328be6a77e034096c6a67c3cfbOUT 0xe0ff071e9c2f7ca021dbc7e4630a8e92a90c92420 MATIC0.001915617 33.000000016
0x414f4514631cff55d503b499e97ba9f9f29b7b6053b4e5d31184155defcdb0e9Deposit From291872432022-06-05 7:33:3326 days 2 hrs ago0xcaa67cb622475c328be6a77e034096c6a67c3cfbOUT 0x28caa843cb577d892a8b6ec3f24aa682ed22be680 MATIC0.005594853002 33.000000016
0xb1db754c4049859e4f27cf06af76241942e190822bd5cf2d29fb8f4d30007774Claim291872212022-06-05 7:32:4926 days 2 hrs ago0xcaa67cb622475c328be6a77e034096c6a67c3cfbOUT 0x28caa843cb577d892a8b6ec3f24aa682ed22be680 MATIC0.004002570001 33.000000015
0xe32ce909936817c94a2fb1f31a5882fb19970e56b82e5605b4a2056e1a191e34Claim291872162022-06-05 7:32:3926 days 2 hrs ago0xcaa67cb622475c328be6a77e034096c6a67c3cfbOUT 0xe0ff071e9c2f7ca021dbc7e4630a8e92a90c92420 MATIC0.001915617 33.000000015
0x6b14214066a7a24b697d2e7c758a082af33fa3aa20a6914526188f55b0e34e04Deposit From291441842022-06-04 6:19:2427 days 3 hrs ago0xcaa67cb622475c328be6a77e034096c6a67c3cfbOUT 0x28caa843cb577d892a8b6ec3f24aa682ed22be680 MATIC0.005594853002 33.000000017
0x0f7d8d65a18633f47af68046c7695da13ccf0f234fced5efecdf1f305582a761Claim291441412022-06-04 6:17:5827 days 3 hrs ago0xcaa67cb622475c328be6a77e034096c6a67c3cfbOUT 0x28caa843cb577d892a8b6ec3f24aa682ed22be680 MATIC0.004002570001 33.000000016
0xcf206ba9b23ea32b1aa2dd520632a7042e01832f5cdd32beddf39213f3bf7701Claim291441362022-06-04 6:17:4827 days 3 hrs ago0xcaa67cb622475c328be6a77e034096c6a67c3cfbOUT 0xe0ff071e9c2f7ca021dbc7e4630a8e92a90c92420 MATIC0.001915617 33.000000016
0x6d812d5b49f65890702d365becc06653c739f3f1d77644fa2a616fe11fef78dcDeposit From291038272022-06-03 6:04:3628 days 3 hrs ago0xcaa67cb622475c328be6a77e034096c6a67c3cfbOUT 0x28caa843cb577d892a8b6ec3f24aa682ed22be680 MATIC0.005594853002 33.000000014
[ Download CSV Export 
Parent Txn Hash Block From To Value
Loading

Contract Name:
0 MATIC

Compiler Version
0

Optimization Enabled:
0 MATIC

Other Settings:
-NA-
Block Transaction Gas Used Reward
Age Block Fee Address BC Fee Address Voting Power Jailed Incoming
Block Uncle Number Difficulty Gas Used Reward
Loading
Loading
Make sure to use the "Vote Down" button for any spammy posts, and the "Vote Up" for interesting conversations.